sensor_id;sensor_type;location;lat;lon;timestamp;temperature;humidity
44271;DHT22;29963;44.594;11.368;2023-06-01T00:02:14;20.00;99.90
44271;DHT22;29963;44.594;11.368;2023-06-01T00:04:40;20.00;99.90
44271;DHT22;29963;44.594;11.368;2023-06-01T00:07:07;19.80;99.90
44271;DHT22;29963;44.594;11.368;2023-06-01T00:09:33;19.70;99.90
44271;DHT22;29963;44.594;11.368;2023-06-01T00:11:59;19.60;99.90
44271;DHT22;29963;44.594;11.368;2023-06-01T00:14:24;19.60;99.90
44271;DHT22;29963;44.594;11.368;2023-06-01T00:16:50;19.70;99.90
44271;DHT22;29963;44.594;11.368;2023-06-01T00:19:17;19.60;99.90
44271;DHT22;29963;44.594;11.368;2023-06-01T00:21:43;19.60;99.90
44271;DHT22;29963;44.594;11.368;2023-06-01T00:24:08;19.60;99.90
44271;DHT22;29963;44.594;11.368;2023-06-01T00:26:34;19.50;99.90
44271;DHT22;29963;44.594;11.368;2023-06-01T00:29:00;19.40;99.90
44271;DHT22;29963;44.594;11.368;2023-06-01T00:31:26;19.40;99.90
44271;DHT22;29963;44.594;11.368;2023-06-01T00:33:52;19.40;99.90
44271;DHT22;29963;44.594;11.368;2023-06-01T00:36:18;19.40;99.90
44271;DHT22;29963;44.594;11.368;2023-06-01T00:38:44;19.40;99.90
44271;DHT22;29963;44.594;11.368;2023-06-01T00:41:10;19.40;99.90
44271;DHT22;29963;44.594;11.368;2023-06-01T00:43:35;19.30;99.90
44271;DHT22;29963;44.594;11.368;2023-06-01T00:46:01;19.30;99.90
44271;DHT22;29963;44.594;11.368;2023-06-01T00:48:27;19.30;99.90
44271;DHT22;29963;44.594;11.368;2023-06-01T00:50:53;19.20;99.90
44271;DHT22;29963;44.594;11.368;2023-06-01T00:53:20;19.10;99.90
44271;DHT22;29963;44.594;11.368;2023-06-01T00:55:46;18.60;99.90
44271;DHT22;29963;44.594;11.368;2023-06-01T00:58:13;19.20;99.90
44271;DHT22;29963;44.594;11.368;2023-06-01T01:00:39;19.20;99.90
44271;DHT22;29963;44.594;11.368;2023-06-01T01:03:06;19.80;99.90
44271;DHT22;29963;44.594;11.368;2023-06-01T01:05:36;19.20;99.90
44271;DHT22;29963;44.594;11.368;2023-06-01T01:08:28;19.20;99.90
44271;DHT22;29963;44.594;11.368;2023-06-01T01:11:06;19.30;99.90
44271;DHT22;29963;44.594;11.368;2023-06-01T01:13:48;19.20;99.90
44271;DHT22;29963;44.594;11.368;2023-06-01T01:16:27;19.10;99.90
44271;DHT22;29963;44.594;11.368;2023-06-01T01:21:53;19.00;99.90
44271;DHT22;29963;44.594;11.368;2023-06-01T01:24:52;19.00;99.90
44271;DHT22;29963;44.594;11.368;2023-06-01T01:27:32;18.90;99.90
44271;DHT22;29963;44.594;11.368;2023-06-01T01:30:06;18.90;99.90
44271;DHT22;29963;44.594;11.368;2023-06-01T01:32:33;18.90;99.90
44271;DHT22;29963;44.594;11.368;2023-06-01T01:35:01;18.90;99.90
44271;DHT22;29963;44.594;11.368;2023-06-01T01:37:27;18.90;99.90
44271;DHT22;29963;44.594;11.368;2023-06-01T01:39:53;18.90;99.90
44271;DHT22;29963;44.594;11.368;2023-06-01T01:42:18;18.90;99.90
44271;DHT22;29963;44.594;11.368;2023-06-01T01:44:45;18.90;99.90
44271;DHT22;29963;44.594;11.368;2023-06-01T01:47:34;18.80;99.90
44271;DHT22;29963;44.594;11.368;2023-06-01T01:50:07;18.70;99.90
44271;DHT22;29963;44.594;11.368;2023-06-01T01:52:42;18.70;99.90
44271;DHT22;29963;44.594;11.368;2023-06-01T01:55:08;18.70;99.90
44271;DHT22;29963;44.594;11.368;2023-06-01T01:57:35;18.60;99.90
44271;DHT22;29963;44.594;11.368;2023-06-01T02:00:03;18.60;99.90
44271;DHT22;29963;44.594;11.368;2023-06-01T02:02:29;18.50;99.90
44271;DHT22;29963;44.594;11.368;2023-06-01T02:04:55;18.40;99.90
44271;DHT22;29963;44.594;11.368;2023-06-01T02:07:21;18.40;99.90
44271;DHT22;29963;44.594;11.368;2023-06-01T02:09:47;18.30;99.90
44271;DHT22;29963;44.594;11.368;2023-06-01T02:12:13;18.30;99.90
44271;DHT22;29963;44.594;11.368;2023-06-01T02:14:39;18.30;99.90
44271;DHT22;29963;44.594;11.368;2023-06-01T02:17:05;18.30;99.90
44271;DHT22;29963;44.594;11.368;2023-06-01T02:19:31;18.30;99.90
44271;DHT22;29963;44.594;11.368;2023-06-01T02:21:57;18.30;99.90
44271;DHT22;29963;44.594;11.368;2023-06-01T02:24:22;18.30;99.90
44271;DHT22;29963;44.594;11.368;2023-06-01T02:26:48;18.20;99.90
44271;DHT22;29963;44.594;11.368;2023-06-01T02:29:18;18.20;99.90
44271;DHT22;29963;44.594;11.368;2023-06-01T02:31:45;18.30;99.90
44271;DHT22;29963;44.594;11.368;2023-06-01T02:34:11;18.20;99.90
44271;DHT22;29963;44.594;11.368;2023-06-01T02:36:36;18.20;99.90
44271;DHT22;29963;44.594;11.368;2023-06-01T02:39:02;18.20;99.90
44271;DHT22;29963;44.594;11.368;2023-06-01T02:41:28;18.10;99.90
44271;DHT22;29963;44.594;11.368;2023-06-01T02:43:53;18.10;99.90
44271;DHT22;29963;44.594;11.368;2023-06-01T02:46:19;18.00;99.90
44271;DHT22;29963;44.594;11.368;2023-06-01T02:48:45;18.00;99.90
44271;DHT22;29963;44.594;11.368;2023-06-01T02:51:11;18.00;99.90
44271;DHT22;29963;44.594;11.368;2023-06-01T02:53:40;18.00;99.90
44271;DHT22;29963;44.594;11.368;2023-06-01T02:56:06;17.90;99.90
44271;DHT22;29963;44.594;11.368;2023-06-01T02:58:32;17.90;99.90
44271;DHT22;29963;44.594;11.368;2023-06-01T03:00:58;17.90;99.90
44271;DHT22;29963;44.594;11.368;2023-06-01T03:03:24;17.90;99.90
44271;DHT22;29963;44.594;11.368;2023-06-01T03:05:50;18.00;99.90
44271;DHT22;29963;44.594;11.368;2023-06-01T03:08:16;18.10;99.90
44271;DHT22;29963;44.594;11.368;2023-06-01T03:10:43;18.00;99.90
44271;DHT22;29963;44.594;11.368;2023-06-01T03:13:08;18.00;99.90
44271;DHT22;29963;44.594;11.368;2023-06-01T03:15:34;18.00;99.90
44271;DHT22;29963;44.594;11.368;2023-06-01T03:18:03;18.00;99.90
44271;DHT22;29963;44.594;11.368;2023-06-01T03:20:29;17.90;99.90
44271;DHT22;29963;44.594;11.368;2023-06-01T03:22:55;17.80;99.90
44271;DHT22;29963;44.594;11.368;2023-06-01T03:25:20;17.80;99.90
44271;DHT22;29963;44.594;11.368;2023-06-01T03:27:46;17.80;99.90
44271;DHT22;29963;44.594;11.368;2023-06-01T03:30:12;17.60;99.90
44271;DHT22;29963;44.594;11.368;2023-06-01T03:32:39;17.60;99.90
44271;DHT22;29963;44.594;11.368;2023-06-01T03:35:07;17.60;99.90
44271;DHT22;29963;44.594;11.368;2023-06-01T03:37:38;17.50;99.90
44271;DHT22;29963;44.594;11.368;2023-06-01T03:40:04;17.40;99.90
44271;DHT22;29963;44.594;11.368;2023-06-01T03:42:38;17.30;99.90
44271;DHT22;29963;44.594;11.368;2023-06-01T03:45:04;17.20;99.90
44271;DHT22;29963;44.594;11.368;2023-06-01T03:47:31;17.20;99.90
44271;DHT22;29963;44.594;11.368;2023-06-01T03:49:57;17.20;99.90
44271;DHT22;29963;44.594;11.368;2023-06-01T03:52:24;17.20;99.90
44271;DHT22;29963;44.594;11.368;2023-06-01T03:54:50;17.20;99.90
44271;DHT22;29963;44.594;11.368;2023-06-01T03:57:16;17.20;99.90
44271;DHT22;29963;44.594;11.368;2023-06-01T03:59:42;17.20;99.90
44271;DHT22;29963;44.594;11.368;2023-06-01T04:02:07;17.20;99.90
44271;DHT22;29963;44.594;11.368;2023-06-01T04:04:36;17.20;99.90
44271;DHT22;29963;44.594;11.368;2023-06-01T04:07:02;17.20;99.90
44271;DHT22;29963;44.594;11.368;2023-06-01T04:09:32;17.30;99.90
44271;DHT22;29963;44.594;11.368;2023-06-01T04:11:57;17.30;99.90
44271;DHT22;29963;44.594;11.368;2023-06-01T04:14:23;17.40;99.90
44271;DHT22;29963;44.594;11.368;2023-06-01T04:16:49;17.50;99.90
44271;DHT22;29963;44.594;11.368;2023-06-01T04:21:40;17.60;99.90
44271;DHT22;29963;44.594;11.368;2023-06-01T04:24:06;17.70;99.90
44271;DHT22;29963;44.594;11.368;2023-06-01T04:26:32;17.80;99.90
44271;DHT22;29963;44.594;11.368;2023-06-01T04:28:58;17.80;99.90
44271;DHT22;29963;44.594;11.368;2023-06-01T04:31:24;17.90;99.90
44271;DHT22;29963;44.594;11.368;2023-06-01T04:33:50;17.90;99.90
44271;DHT22;29963;44.594;11.368;2023-06-01T04:36:21;18.00;99.90
44271;DHT22;29963;44.594;11.368;2023-06-01T04:38:51;18.00;99.90
44271;DHT22;29963;44.594;11.368;2023-06-01T04:41:19;17.90;99.90
44271;DHT22;29963;44.594;11.368;2023-06-01T04:43:47;17.90;99.90
44271;DHT22;29963;44.594;11.368;2023-06-01T04:46:24;17.90;99.90
44271;DHT22;29963;44.594;11.368;2023-06-01T04:48:52;17.90;99.90
44271;DHT22;29963;44.594;11.368;2023-06-01T04:51:18;17.90;99.90
44271;DHT22;29963;44.594;11.368;2023-06-01T04:53:50;17.90;99.90
44271;DHT22;29963;44.594;11.368;2023-06-01T04:56:24;17.90;99.90
44271;DHT22;29963;44.594;11.368;2023-06-01T04:58:52;18.00;99.90
44271;DHT22;29963;44.594;11.368;2023-06-01T05:01:18;18.00;99.90
44271;DHT22;29963;44.594;11.368;2023-06-01T05:03:45;18.00;99.90
44271;DHT22;29963;44.594;11.368;2023-06-01T05:06:12;18.10;99.90
44271;DHT22;29963;44.594;11.368;2023-06-01T05:08:39;18.10;99.90
44271;DHT22;29963;44.594;11.368;2023-06-01T05:11:05;18.20;99.90
44271;DHT22;29963;44.594;11.368;2023-06-01T05:13:33;18.30;99.90
44271;DHT22;29963;44.594;11.368;2023-06-01T05:15:59;18.30;99.90
44271;DHT22;29963;44.594;11.368;2023-06-01T05:18:24;18.40;99.90
44271;DHT22;29963;44.594;11.368;2023-06-01T05:20:50;18.40;99.90
44271;DHT22;29963;44.594;11.368;2023-06-01T05:23:16;18.50;99.90
44271;DHT22;29963;44.594;11.368;2023-06-01T05:25:42;18.60;99.90
44271;DHT22;29963;44.594;11.368;2023-06-01T05:28:09;18.50;99.90
44271;DHT22;29963;44.594;11.368;2023-06-01T05:30:35;18.60;99.90
44271;DHT22;29963;44.594;11.368;2023-06-01T05:33:00;18.60;99.90
44271;DHT22;29963;44.594;11.368;2023-06-01T05:35:26;18.60;99.90
44271;DHT22;29963;44.594;11.368;2023-06-01T05:37:52;18.70;99.90
44271;DHT22;29963;44.594;11.368;2023-06-01T05:40:18;18.80;99.90
44271;DHT22;29963;44.594;11.368;2023-06-01T05:42:43;18.90;99.90
44271;DHT22;29963;44.594;11.368;2023-06-01T05:45:09;18.90;99.90
44271;DHT22;29963;44.594;11.368;2023-06-01T05:47:35;18.90;99.90
44271;DHT22;29963;44.594;11.368;2023-06-01T05:50:00;18.90;99.90
44271;DHT22;29963;44.594;11.368;2023-06-01T05:52:26;19.00;99.90
44271;DHT22;29963;44.594;11.368;2023-06-01T05:54:52;19.10;99.90
44271;DHT22;29963;44.594;11.368;2023-06-01T05:57:19;19.20;99.90
44271;DHT22;29963;44.594;11.368;2023-06-01T05:59:45;19.20;99.90
44271;DHT22;29963;44.594;11.368;2023-06-01T06:02:12;19.20;99.90
44271;DHT22;29963;44.594;11.368;2023-06-01T06:04:39;19.30;99.90
44271;DHT22;29963;44.594;11.368;2023-06-01T06:07:05;19.30;99.90
44271;DHT22;29963;44.594;11.368;2023-06-01T06:09:30;19.30;99.90
44271;DHT22;29963;44.594;11.368;2023-06-01T06:11:56;19.40;99.90
44271;DHT22;29963;44.594;11.368;2023-06-01T06:14:22;19.30;99.90
44271;DHT22;29963;44.594;11.368;2023-06-01T06:16:48;19.30;99.90
44271;DHT22;29963;44.594;11.368;2023-06-01T06:19:14;19.30;99.90
44271;DHT22;29963;44.594;11.368;2023-06-01T06:21:41;19.40;99.90
44271;DHT22;29963;44.594;11.368;2023-06-01T06:24:07;19.50;99.90
44271;DHT22;29963;44.594;11.368;2023-06-01T06:26:33;19.50;99.90
44271;DHT22;29963;44.594;11.368;2023-06-01T06:28:59;19.60;99.90
44271;DHT22;29963;44.594;11.368;2023-06-01T06:31:24;19.60;99.90
44271;DHT22;29963;44.594;11.368;2023-06-01T06:33:51;19.70;99.90
44271;DHT22;29963;44.594;11.368;2023-06-01T06:36:17;19.70;99.90
44271;DHT22;29963;44.594;11.368;2023-06-01T06:38:44;19.70;99.90
44271;DHT22;29963;44.594;11.368;2023-06-01T06:41:09;19.80;99.90
44271;DHT22;29963;44.594;11.368;2023-06-01T06:43:35;19.90;99.90
44271;DHT22;29963;44.594;11.368;2023-06-01T06:46:01;20.00;99.90
44271;DHT22;29963;44.594;11.368;2023-06-01T06:48:27;20.20;99.90
44271;DHT22;29963;44.594;11.368;2023-06-01T06:50:53;20.00;99.90
44271;DHT22;29963;44.594;11.368;2023-06-01T06:53:18;20.20;99.90
44271;DHT22;29963;44.594;11.368;2023-06-01T06:55:44;20.30;99.90
44271;DHT22;29963;44.594;11.368;2023-06-01T06:58:10;20.50;99.90
44271;DHT22;29963;44.594;11.368;2023-06-01T07:00:36;20.50;99.90
44271;DHT22;29963;44.594;11.368;2023-06-01T07:03:02;20.60;99.90
44271;DHT22;29963;44.594;11.368;2023-06-01T07:05:28;20.60;99.90
44271;DHT22;29963;44.594;11.368;2023-06-01T07:07:54;20.70;99.90
44271;DHT22;29963;44.594;11.368;2023-06-01T07:10:20;20.70;99.90
44271;DHT22;29963;44.594;11.368;2023-06-01T07:12:46;20.80;99.90
44271;DHT22;29963;44.594;11.368;2023-06-01T07:15:12;20.90;99.90
44271;DHT22;29963;44.594;11.368;2023-06-01T07:17:38;20.90;99.90
44271;DHT22;29963;44.594;11.368;2023-06-01T07:20:04;21.10;99.90
44271;DHT22;29963;44.594;11.368;2023-06-01T07:22:34;21.10;99.90
44271;DHT22;29963;44.594;11.368;2023-06-01T07:25:00;21.10;99.90
44271;DHT22;29963;44.594;11.368;2023-06-01T07:27:26;21.10;99.90
44271;DHT22;29963;44.594;11.368;2023-06-01T07:29:52;21.10;99.90
44271;DHT22;29963;44.594;11.368;2023-06-01T07:32:24;21.20;99.90
44271;DHT22;29963;44.594;11.368;2023-06-01T07:34:51;21.30;99.90
44271;DHT22;29963;44.594;11.368;2023-06-01T07:37:16;21.30;99.90
44271;DHT22;29963;44.594;11.368;2023-06-01T07:39:50;21.30;99.90
44271;DHT22;29963;44.594;11.368;2023-06-01T07:42:16;21.20;99.90
44271;DHT22;29963;44.594;11.368;2023-06-01T07:44:42;21.20;99.90
44271;DHT22;29963;44.594;11.368;2023-06-01T07:47:08;21.30;99.90
44271;DHT22;29963;44.594;11.368;2023-06-01T07:49:33;21.40;99.90
44271;DHT22;29963;44.594;11.368;2023-06-01T07:52:03;21.60;99.90
44271;DHT22;29963;44.594;11.368;2023-06-01T07:56:56;21.50;99.90
44271;DHT22;29963;44.594;11.368;2023-06-01T07:59:22;21.70;99.90
44271;DHT22;29963;44.594;11.368;2023-06-01T08:01:49;21.60;99.90
44271;DHT22;29963;44.594;11.368;2023-06-01T08:04:15;21.60;99.90
44271;DHT22;29963;44.594;11.368;2023-06-01T08:06:42;21.60;99.90
44271;DHT22;29963;44.594;11.368;2023-06-01T08:09:09;21.60;99.90
44271;DHT22;29963;44.594;11.368;2023-06-01T08:11:35;21.70;99.90
44271;DHT22;29963;44.594;11.368;2023-06-01T08:14:01;21.80;99.90
44271;DHT22;29963;44.594;11.368;2023-06-01T08:16:30;21.90;99.90
44271;DHT22;29963;44.594;11.368;2023-06-01T08:18:56;22.00;99.90
44271;DHT22;29963;44.594;11.368;2023-06-01T08:21:24;22.00;99.90
44271;DHT22;29963;44.594;11.368;2023-06-01T08:23:52;22.10;99.90
44271;DHT22;29963;44.594;11.368;2023-06-01T08:26:21;22.10;99.90
44271;DHT22;29963;44.594;11.368;2023-06-01T08:28:46;22.20;99.90
44271;DHT22;29963;44.594;11.368;2023-06-01T08:31:21;22.30;99.90
44271;DHT22;29963;44.594;11.368;2023-06-01T08:33:48;22.40;99.90
44271;DHT22;29963;44.594;11.368;2023-06-01T08:36:14;22.50;99.90
44271;DHT22;29963;44.594;11.368;2023-06-01T08:38:40;22.60;99.90
44271;DHT22;29963;44.594;11.368;2023-06-01T08:43:45;22.50;99.90
44271;DHT22;29963;44.594;11.368;2023-06-01T08:46:11;22.60;99.90
44271;DHT22;29963;44.594;11.368;2023-06-01T08:48:38;22.70;99.90
44271;DHT22;29963;44.594;11.368;2023-06-01T08:51:05;22.70;99.90
44271;DHT22;29963;44.594;11.368;2023-06-01T08:53:32;22.80;99.90
44271;DHT22;29963;44.594;11.368;2023-06-01T08:55:58;22.60;99.90
44271;DHT22;29963;44.594;11.368;2023-06-01T08:58:24;22.80;99.90
44271;DHT22;29963;44.594;11.368;2023-06-01T09:00:51;22.90;99.90
44271;DHT22;29963;44.594;11.368;2023-06-01T09:03:19;22.90;99.90
44271;DHT22;29963;44.594;11.368;2023-06-01T09:05:45;22.90;99.90
44271;DHT22;29963;44.594;11.368;2023-06-01T09:08:11;22.90;99.90
44271;DHT22;29963;44.594;11.368;2023-06-01T09:10:37;23.00;99.90
44271;DHT22;29963;44.594;11.368;2023-06-01T09:13:03;23.00;99.90
44271;DHT22;29963;44.594;11.368;2023-06-01T09:15:29;23.10;99.90
44271;DHT22;29963;44.594;11.368;2023-06-01T09:18:06;23.20;99.90
44271;DHT22;29963;44.594;11.368;2023-06-01T09:20:33;23.20;99.90
44271;DHT22;29963;44.594;11.368;2023-06-01T09:22:58;23.20;99.90
44271;DHT22;29963;44.594;11.368;2023-06-01T09:25:26;23.30;99.90
44271;DHT22;29963;44.594;11.368;2023-06-01T09:27:55;23.30;99.90
44271;DHT22;29963;44.594;11.368;2023-06-01T09:30:23;23.40;99.90
44271;DHT22;29963;44.594;11.368;2023-06-01T09:32:49;23.50;99.90
44271;DHT22;29963;44.594;11.368;2023-06-01T09:35:44;23.40;99.90
44271;DHT22;29963;44.594;11.368;2023-06-01T09:38:10;23.50;99.90
44271;DHT22;29963;44.594;11.368;2023-06-01T09:40:38;23.60;99.90
44271;DHT22;29963;44.594;11.368;2023-06-01T09:43:18;23.70;99.90
44271;DHT22;29963;44.594;11.368;2023-06-01T09:45:45;23.80;99.90
44271;DHT22;29963;44.594;11.368;2023-06-01T09:48:17;23.80;99.90
44271;DHT22;29963;44.594;11.368;2023-06-01T09:50:47;23.80;99.90
44271;DHT22;29963;44.594;11.368;2023-06-01T09:53:13;23.80;99.90
44271;DHT22;29963;44.594;11.368;2023-06-01T09:55:59;23.80;99.90
44271;DHT22;29963;44.594;11.368;2023-06-01T09:58:26;23.80;99.90
44271;DHT22;29963;44.594;11.368;2023-06-01T10:00:52;23.90;99.90
44271;DHT22;29963;44.594;11.368;2023-06-01T10:03:19;24.00;99.90
44271;DHT22;29963;44.594;11.368;2023-06-01T10:05:46;24.00;99.90
44271;DHT22;29963;44.594;11.368;2023-06-01T10:08:15;24.10;99.90
44271;DHT22;29963;44.594;11.368;2023-06-01T10:10:44;24.20;99.90
44271;DHT22;29963;44.594;11.368;2023-06-01T10:13:11;24.30;99.90
44271;DHT22;29963;44.594;11.368;2023-06-01T10:15:37;24.30;99.90
44271;DHT22;29963;44.594;11.368;2023-06-01T10:18:04;24.30;99.90
44271;DHT22;29963;44.594;11.368;2023-06-01T10:20:34;24.50;99.90
44271;DHT22;29963;44.594;11.368;2023-06-01T10:23:01;24.60;99.90
44271;DHT22;29963;44.594;11.368;2023-06-01T10:25:31;24.60;99.90
44271;DHT22;29963;44.594;11.368;2023-06-01T10:28:02;24.70;99.90
44271;DHT22;29963;44.594;11.368;2023-06-01T10:30:29;24.60;99.90
44271;DHT22;29963;44.594;11.368;2023-06-01T10:32:55;24.50;99.90
44271;DHT22;29963;44.594;11.368;2023-06-01T10:38:22;24.60;99.90
44271;DHT22;29963;44.594;11.368;2023-06-01T10:40:47;24.70;99.90
44271;DHT22;29963;44.594;11.368;2023-06-01T10:46:01;24.80;99.90
44271;DHT22;29963;44.594;11.368;2023-06-01T10:48:54;24.90;99.90
44271;DHT22;29963;44.594;11.368;2023-06-01T10:51:22;24.90;99.90
44271;DHT22;29963;44.594;11.368;2023-06-01T10:53:50;24.90;99.90
44271;DHT22;29963;44.594;11.368;2023-06-01T10:56:27;25.00;99.90
44271;DHT22;29963;44.594;11.368;2023-06-01T10:59:09;25.10;99.90
44271;DHT22;29963;44.594;11.368;2023-06-01T11:01:40;25.00;99.90
44271;DHT22;29963;44.594;11.368;2023-06-01T11:04:07;25.10;99.90
44271;DHT22;29963;44.594;11.368;2023-06-01T11:06:35;25.20;99.90
44271;DHT22;29963;44.594;11.368;2023-06-01T11:09:04;25.20;99.90
44271;DHT22;29963;44.594;11.368;2023-06-01T11:14:14;25.20;99.90
44271;DHT22;29963;44.594;11.368;2023-06-01T11:16:41;25.20;99.90
44271;DHT22;29963;44.594;11.368;2023-06-01T11:19:08;25.20;99.90
44271;DHT22;29963;44.594;11.368;2023-06-01T11:21:41;25.20;99.90
44271;DHT22;29963;44.594;11.368;2023-06-01T11:24:15;25.20;99.90
44271;DHT22;29963;44.594;11.368;2023-06-01T11:26:49;25.30;99.90
44271;DHT22;29963;44.594;11.368;2023-06-01T11:29:20;25.30;99.90
44271;DHT22;29963;44.594;11.368;2023-06-01T11:31:47;25.40;99.90
44271;DHT22;29963;44.594;11.368;2023-06-01T11:34:15;25.40;99.90
44271;DHT22;29963;44.594;11.368;2023-06-01T11:36:47;25.40;99.90
44271;DHT22;29963;44.594;11.368;2023-06-01T11:41:43;25.30;99.90
44271;DHT22;29963;44.594;11.368;2023-06-01T11:44:10;25.20;99.90
44271;DHT22;29963;44.594;11.368;2023-06-01T11:46:35;25.20;99.90
44271;DHT22;29963;44.594;11.368;2023-06-01T11:49:03;25.20;99.90
44271;DHT22;29963;44.594;11.368;2023-06-01T11:51:38;25.30;99.90
44271;DHT22;29963;44.594;11.368;2023-06-01T11:54:05;25.30;99.90
44271;DHT22;29963;44.594;11.368;2023-06-01T11:56:32;25.30;99.90
44271;DHT22;29963;44.594;11.368;2023-06-01T11:59:04;25.40;99.50
44271;DHT22;29963;44.594;11.368;2023-06-01T12:01:34;25.40;99.10
44271;DHT22;29963;44.594;11.368;2023-06-01T12:04:00;25.60;99.40
44271;DHT22;29963;44.594;11.368;2023-06-01T12:06:28;25.70;99.10
44271;DHT22;29963;44.594;11.368;2023-06-01T12:08:55;25.70;98.00
44271;DHT22;29963;44.594;11.368;2023-06-01T12:11:27;25.80;98.10
44271;DHT22;29963;44.594;11.368;2023-06-01T12:13:54;25.90;98.20
44271;DHT22;29963;44.594;11.368;2023-06-01T12:16:21;25.90;98.60
44271;DHT22;29963;44.594;11.368;2023-06-01T12:18:46;25.90;98.70
44271;DHT22;29963;44.594;11.368;2023-06-01T12:21:12;25.90;98.10
44271;DHT22;29963;44.594;11.368;2023-06-01T12:23:38;25.80;97.70
44271;DHT22;29963;44.594;11.368;2023-06-01T12:26:04;25.80;98.20
44271;DHT22;29963;44.594;11.368;2023-06-01T12:28:47;25.80;98.20
44271;DHT22;29963;44.594;11.368;2023-06-01T12:31:15;25.80;97.30
44271;DHT22;29963;44.594;11.368;2023-06-01T12:33:42;25.80;96.30
44271;DHT22;29963;44.594;11.368;2023-06-01T12:36:10;25.70;96.10
44271;DHT22;29963;44.594;11.368;2023-06-01T12:38:50;25.80;96.80
44271;DHT22;29963;44.594;11.368;2023-06-01T12:41:16;25.80;96.70
44271;DHT22;29963;44.594;11.368;2023-06-01T12:43:46;25.90;96.80
44271;DHT22;29963;44.594;11.368;2023-06-01T12:46:26;26.00;97.50
44271;DHT22;29963;44.594;11.368;2023-06-01T12:48:54;26.20;97.90
44271;DHT22;29963;44.594;11.368;2023-06-01T12:51:21;26.40;96.90
44271;DHT22;29963;44.594;11.368;2023-06-01T12:53:47;26.60;96.00
44271;DHT22;29963;44.594;11.368;2023-06-01T12:56:13;26.50;96.30
44271;DHT22;29963;44.594;11.368;2023-06-01T12:58:39;26.60;96.50
44271;DHT22;29963;44.594;11.368;2023-06-01T13:01:05;26.50;96.40
44271;DHT22;29963;44.594;11.368;2023-06-01T13:03:32;26.60;96.80
44271;DHT22;29963;44.594;11.368;2023-06-01T13:05:58;26.60;96.60
44271;DHT22;29963;44.594;11.368;2023-06-01T13:08:25;26.60;96.80
44271;DHT22;29963;44.594;11.368;2023-06-01T13:10:51;26.60;96.80
44271;DHT22;29963;44.594;11.368;2023-06-01T13:13:17;26.70;97.40
44271;DHT22;29963;44.594;11.368;2023-06-01T13:15:43;26.90;96.80
44271;DHT22;29963;44.594;11.368;2023-06-01T13:18:13;26.90;95.80
44271;DHT22;29963;44.594;11.368;2023-06-01T13:20:39;26.90;94.20
44271;DHT22;29963;44.594;11.368;2023-06-01T13:23:05;26.90;94.40
44271;DHT22;29963;44.594;11.368;2023-06-01T13:25:32;26.80;94.50
44271;DHT22;29963;44.594;11.368;2023-06-01T13:28:00;26.90;94.90
44271;DHT22;29963;44.594;11.368;2023-06-01T13:30:27;26.90;94.80
44271;DHT22;29963;44.594;11.368;2023-06-01T13:32:56;27.00;94.50
44271;DHT22;29963;44.594;11.368;2023-06-01T13:35:22;27.20;94.30
44271;DHT22;29963;44.594;11.368;2023-06-01T13:37:48;27.30;93.40
44271;DHT22;29963;44.594;11.368;2023-06-01T13:40:14;27.40;92.60
44271;DHT22;29963;44.594;11.368;2023-06-01T13:42:44;27.50;92.80
44271;DHT22;29963;44.594;11.368;2023-06-01T13:45:10;27.40;92.50
44271;DHT22;29963;44.594;11.368;2023-06-01T13:47:35;27.50;93.00
44271;DHT22;29963;44.594;11.368;2023-06-01T13:50:01;27.50;93.30
44271;DHT22;29963;44.594;11.368;2023-06-01T13:52:27;27.60;93.40
44271;DHT22;29963;44.594;11.368;2023-06-01T13:54:53;27.70;93.40
44271;DHT22;29963;44.594;11.368;2023-06-01T13:57:18;27.90;93.80
44271;DHT22;29963;44.594;11.368;2023-06-01T13:59:44;28.00;94.10
44271;DHT22;29963;44.594;11.368;2023-06-01T14:02:10;28.00;93.10
44271;DHT22;29963;44.594;11.368;2023-06-01T14:04:36;27.90;93.10
44271;DHT22;29963;44.594;11.368;2023-06-01T14:07:02;27.90;92.60
44271;DHT22;29963;44.594;11.368;2023-06-01T14:09:28;27.90;92.20
44271;DHT22;29963;44.594;11.368;2023-06-01T14:11:53;27.80;91.50
44271;DHT22;29963;44.594;11.368;2023-06-01T14:14:19;27.80;91.40
44271;DHT22;29963;44.594;11.368;2023-06-01T14:16:45;27.80;92.10
44271;DHT22;29963;44.594;11.368;2023-06-01T14:19:10;28.00;91.40
44271;DHT22;29963;44.594;11.368;2023-06-01T14:21:37;28.10;91.40
44271;DHT22;29963;44.594;11.368;2023-06-01T14:24:04;28.20;91.80
44271;DHT22;29963;44.594;11.368;2023-06-01T14:26:30;28.40;90.50
44271;DHT22;29963;44.594;11.368;2023-06-01T14:28:55;28.50;90.40
44271;DHT22;29963;44.594;11.368;2023-06-01T14:31:21;28.70;90.60
44271;DHT22;29963;44.594;11.368;2023-06-01T14:33:47;28.90;91.20
44271;DHT22;29963;44.594;11.368;2023-06-01T14:36:13;29.00;90.20
44271;DHT22;29963;44.594;11.368;2023-06-01T14:38:39;29.00;88.50
44271;DHT22;29963;44.594;11.368;2023-06-01T14:41:06;29.00;90.10
44271;DHT22;29963;44.594;11.368;2023-06-01T14:43:32;29.20;90.60
44271;DHT22;29963;44.594;11.368;2023-06-01T14:45:58;29.30;89.20
44271;DHT22;29963;44.594;11.368;2023-06-01T14:48:24;29.40;87.70
44271;DHT22;29963;44.594;11.368;2023-06-01T14:50:50;29.40;88.70
44271;DHT22;29963;44.594;11.368;2023-06-01T14:53:16;29.50;88.10
44271;DHT22;29963;44.594;11.368;2023-06-01T14:55:41;29.60;89.00
44271;DHT22;29963;44.594;11.368;2023-06-01T14:58:08;29.90;87.70
44271;DHT22;29963;44.594;11.368;2023-06-01T15:00:35;30.00;85.20
44271;DHT22;29963;44.594;11.368;2023-06-01T15:03:01;30.20;86.10
44271;DHT22;29963;44.594;11.368;2023-06-01T15:05:27;30.30;85.70
44271;DHT22;29963;44.594;11.368;2023-06-01T15:07:52;30.40;84.60
44271;DHT22;29963;44.594;11.368;2023-06-01T15:10:18;30.40;85.60
44271;DHT22;29963;44.594;11.368;2023-06-01T15:12:44;30.70;86.30
44271;DHT22;29963;44.594;11.368;2023-06-01T15:15:10;30.90;83.80
44271;DHT22;29963;44.594;11.368;2023-06-01T15:17:36;30.90;83.80
44271;DHT22;29963;44.594;11.368;2023-06-01T15:20:01;30.90;81.90
44271;DHT22;29963;44.594;11.368;2023-06-01T15:22:27;30.90;82.70
44271;DHT22;29963;44.594;11.368;2023-06-01T15:24:53;31.00;81.90
44271;DHT22;29963;44.594;11.368;2023-06-01T15:27:19;31.40;82.30
44271;DHT22;29963;44.594;11.368;2023-06-01T15:29:45;31.80;78.40
44271;DHT22;29963;44.594;11.368;2023-06-01T15:32:11;32.00;79.20
44271;DHT22;29963;44.594;11.368;2023-06-01T15:34:37;32.20;78.50
44271;DHT22;29963;44.594;11.368;2023-06-01T15:37:08;32.80;76.60
44271;DHT22;29963;44.594;11.368;2023-06-01T15:39:37;33.50;75.20